Time;durP1;ratioP1;P1;durP2;ratioP2;P2;SDS_P1;SDS_P2;PMS_P1;PMS_P2;Temp;Humidity;BMP_temperature;BMP_pressure;BME280_temperature;BME280_humidity;BME280_pressure;Samples;Min_cycle;Max_cycle;Signal;HPM_P1;HPM_P2
2021/04/23 00:00:39;;;;;;;8.03;3.97;;;5.60;76.20;;;;;;5029288;28;20441;-69
2021/04/23 00:03:14;;;;;;;5.63;3.30;;;5.50;76.90;;;;;;5029339;28;20451;-69
2021/04/23 00:05:42;;;;;;;15.20;3.53;;;5.50;76.20;;;;;;5029557;28;20459;-69
2021/04/23 00:08:09;;;;;;;4.17;3.20;;;5.60;76.20;;;;;;5029513;28;20955;-68
2021/04/23 00:10:36;;;;;;;6.33;2.90;;;5.50;76.30;;;;;;5029258;28;20935;-69
2021/04/23 00:13:03;;;;;;;3.63;2.77;;;5.50;76.20;;;;;;5029566;28;20474;-68
2021/04/23 00:15:30;;;;;;;10.37;3.20;;;5.40;76.30;;;;;;5029353;28;20484;-69
2021/04/23 00:17:58;;;;;;;4.30;2.50;;;5.40;76.60;;;;;;5029386;28;20446;-68
2021/04/23 00:20:27;;;;;;;3.07;2.43;;;5.30;76.90;;;;;;5029064;28;20435;-69
2021/04/23 00:22:54;;;;;;;7.17;3.13;;;5.30;77.20;;;;;;5029283;28;20554;-69
2021/04/23 00:25:25;;;;;;;9.00;4.20;;;5.30;76.70;;;;;;5028968;28;20527;-69
2021/04/23 00:27:52;;;;;;;5.40;3.13;;;5.20;77.10;;;;;;5029516;28;20523;-69
2021/04/23 00:30:19;;;;;;;5.77;2.87;;;5.10;77.10;;;;;;5028954;28;20431;-69
2021/04/23 00:32:46;;;;;;;5.70;3.70;;;5.10;77.90;;;;;;5028797;28;20835;-69
2021/04/23 00:35:17;;;;;;;6.90;3.53;;;5.10;77.70;;;;;;5029078;28;20455;-69
2021/04/23 00:37:46;;;;;;;6.43;2.90;;;5.10;77.80;;;;;;5029101;28;20426;-68
2021/04/23 00:40:19;;;;;;;5.80;3.00;;;5.00;77.60;;;;;;5028844;28;20475;-68
2021/04/23 00:42:46;;;;;;;9.10;4.30;;;4.90;77.80;;;;;;5029060;28;20866;-68
2021/04/23 00:45:15;;;;;;;6.13;2.93;;;4.90;78.10;;;;;;5028813;28;20471;-68
2021/04/23 00:47:45;;;;;;;5.10;3.03;;;4.80;78.00;;;;;;5028974;28;20963;-68
2021/04/23 00:50:14;;;;;;;5.20;3.17;;;4.80;78.50;;;;;;5028863;28;20435;-68
2021/04/23 00:52:41;;;;;;;2.97;2.67;;;4.80;78.40;;;;;;5028592;28;20449;-69
2021/04/23 00:55:09;;;;;;;8.40;4.67;;;4.80;78.60;;;;;;5027504;28;20467;-69
2021/04/23 00:57:36;;;;;;;8.97;3.50;;;4.70;78.40;;;;;;5028790;28;20429;-69
2021/04/23 01:00:05;;;;;;;8.73;3.50;;;4.80;79.30;;;;;;5028582;28;20820;-69
2021/04/23 01:02:32;;;;;;;5.90;4.20;;;4.80;78.80;;;;;;5028725;28;20437;-69
2021/04/23 01:04:58;;;;;;;8.27;4.10;;;4.80;79.00;;;;;;5028352;28;20465;-69
2021/04/23 01:07:26;;;;;;;8.77;3.27;;;4.80;78.80;;;;;;5028715;28;20446;-69
2021/04/23 01:09:53;;;;;;;6.30;3.30;;;4.80;78.80;;;;;;5028521;28;20426;-69
2021/04/23 01:12:19;;;;;;;7.20;3.57;;;4.80;79.20;;;;;;5028454;28;20479;-69
2021/04/23 01:14:46;;;;;;;10.40;3.30;;;4.70;79.20;;;;;;5028547;28;20430;-69
2021/04/23 01:17:13;;;;;;;7.37;3.70;;;4.70;79.60;;;;;;5028616;28;20429;-68
2021/04/23 01:19:40;;;;;;;8.73;4.73;;;4.70;79.40;;;;;;5027740;28;20835;-68
2021/04/23 01:22:07;;;;;;;6.30;5.03;;;4.80;79.60;;;;;;5028567;28;20449;-69
2021/04/23 01:24:34;;;;;;;4.73;3.40;;;4.70;79.50;;;;;;5028382;28;20476;-69
2021/04/23 01:27:01;;;;;;;6.33;3.43;;;4.70;79.60;;;;;;5028316;28;20435;-68
2021/04/23 01:29:28;;;;;;;7.57;2.90;;;4.60;79.70;;;;;;5028175;28;20433;-69
2021/04/23 01:31:57;;;;;;;6.90;3.20;;;4.60;79.70;;;;;;5028143;28;20455;-69
2021/04/23 01:34:29;;;;;;;8.73;3.80;;;4.60;80.00;;;;;;5027799;28;20465;-68
2021/04/23 01:36:57;;;;;;;4.23;3.23;;;4.50;80.30;;;;;;5028468;28;20441;-69
2021/04/23 01:39:27;;;;;;;7.20;3.10;;;4.50;80.50;;;;;;5027975;28;20479;-69
2021/04/23 01:41:55;;;;;;;6.00;3.23;;;4.50;80.70;;;;;;5028358;28;20475;-69
2021/04/23 01:44:23;;;;;;;8.27;3.40;;;4.40;80.70;;;;;;5027899;28;20512;-69
2021/04/23 01:46:50;;;;;;;4.70;3.00;;;4.40;80.80;;;;;;5027867;28;20426;-69
2021/04/23 01:49:19;;;;;;;7.83;3.33;;;4.40;81.30;;;;;;5027522;28;20458;-68
2021/04/23 01:51:53;;;;;;;4.30;3.17;;;4.40;81.20;;;;;;5027984;28;20434;-69
2021/04/23 01:54:20;;;;;;;4.17;3.53;;;4.40;81.40;;;;;;5027971;28;20521;-69
2021/04/23 01:56:49;;;;;;;10.33;2.80;;;4.30;81.20;;;;;;5027997;28;20440;-68
2021/04/23 01:59:16;;;;;;;6.83;3.70;;;4.30;81.70;;;;;;5027626;28;20466;-69
2021/04/23 02:01:44;;;;;;;4.93;2.70;;;4.30;81.40;;;;;;5028000;28;20434;-68
2021/04/23 02:04:14;;;;;;;5.37;4.47;;;4.30;81.80;;;;;;5027528;28;20877;-69
2021/04/23 02:06:41;;;;;;;6.50;4.00;;;4.30;81.70;;;;;;5030913;28;20433;-69
2021/04/23 02:09:10;;;;;;;5.50;3.30;;;4.30;81.80;;;;;;5031171;28;20487;-68
2021/04/23 02:11:38;;;;;;;7.47;2.73;;;4.20;81.70;;;;;;5031211;28;20437;-69
2021/04/23 02:14:06;;;;;;;8.17;3.40;;;4.20;82.00;;;;;;5031214;28;20453;-69
2021/04/23 02:16:33;;;;;;;4.20;3.00;;;4.20;82.30;;;;;;5031316;28;20940;-69
2021/04/23 02:19:00;;;;;;;4.07;3.07;;;4.20;82.20;;;;;;5030595;28;20451;-68
2021/04/23 02:21:27;;;;;;;6.17;2.90;;;4.20;82.50;;;;;;5031489;28;20804;-69
2021/04/23 02:23:55;;;;;;;10.77;4.03;;;4.10;82.60;;;;;;5031099;28;20827;-68
2021/04/23 02:26:23;;;;;;;6.07;3.00;;;4.10;82.30;;;;;;5031147;28;20444;-69
2021/04/23 02:28:51;;;;;;;10.90;4.07;;;4.10;82.30;;;;;;5030938;28;20478;-69
2021/04/23 02:31:22;;;;;;;8.20;3.10;;;4.00;82.50;;;;;;5031222;28;20484;-69
2021/04/23 02:33:50;;;;;;;5.70;3.00;;;4.00;82.90;;;;;;5030559;28;20488;-69
2021/04/23 02:36:18;;;;;;;10.87;3.70;;;3.90;82.70;;;;;;5031033;28;20428;-70
2021/04/23 02:38:45;;;;;;;6.53;3.43;;;3.90;83.20;;;;;;5030480;28;20450;-69
2021/04/23 02:41:12;;;;;;;5.43;3.40;;;3.90;84.00;;;;;;5030939;28;20438;-69
2021/04/23 02:43:40;;;;;;;7.60;3.80;;;3.90;83.30;;;;;;5030597;28;20805;-69
2021/04/23 02:46:07;;;;;;;7.40;3.70;;;3.90;83.20;;;;;;5030813;28;20495;-69
2021/04/23 02:48:38;;;;;;;9.87;3.67;;;3.90;83.80;;;;;;5030305;28;20432;-69
2021/04/23 02:51:09;;;;;;;5.93;3.80;;;3.90;83.40;;;;;;5030836;28;20429;-69
2021/04/23 02:53:36;;;;;;;7.50;4.20;;;3.90;83.70;;;;;;5030500;28;20469;-69
2021/04/23 02:56:05;;;;;;;5.47;3.20;;;3.90;84.00;;;;;;5030645;28;20437;-69
2021/04/23 02:58:32;;;;;;;4.40;2.80;;;3.90;83.90;;;;;;5030566;28;20461;-69
2021/04/23 03:01:01;;;;;;;3.83;3.17;;;3.90;84.10;;;;;;5030587;28;20839;-69
2021/04/23 03:03:29;;;;;;;4.57;3.00;;;3.80;84.00;;;;;;5030048;28;20992;-69
2021/04/23 03:05:57;;;;;;;8.13;3.37;;;3.80;84.20;;;;;;5030249;28;20845;-69
2021/04/23 03:08:24;;;;;;;7.80;3.83;;;3.80;84.40;;;;;;5030416;28;20457;-69
2021/04/23 03:10:56;;;;;;;6.43;3.70;;;3.80;84.60;;;;;;5030444;28;20430;-68
2021/04/23 03:13:26;;;;;;;8.63;3.53;;;3.80;84.60;;;;;;5030586;28;20459;-69
2021/04/23 03:15:55;;;;;;;5.60;3.40;;;3.80;85.00;;;;;;5030686;28;20432;-69
2021/04/23 03:18:24;;;;;;;4.77;3.43;;;3.80;84.90;;;;;;5028977;28;20439;-68
2021/04/23 03:20:53;;;;;;;10.27;3.73;;;3.80;85.00;;;;;;5030065;28;20442;-68
2021/04/23 03:23:21;;;;;;;9.90;3.57;;;3.80;85.00;;;;;;5030209;28;20551;-68
2021/04/23 03:25:48;;;;;;;9.87;5.33;;;3.80;85.00;;;;;;5030122;28;20828;-68
2021/04/23 03:28:15;;;;;;;13.23;4.10;;;3.80;85.00;;;;;;5030172;28;20437;-69
2021/04/23 03:30:43;;;;;;;8.70;3.93;;;3.70;85.60;;;;;;5029903;28;20429;-68
2021/04/23 03:33:11;;;;;;;7.33;3.17;;;3.70;85.40;;;;;;5029749;28;20476;-69
2021/04/23 03:35:38;;;;;;;8.37;4.47;;;3.70;85.40;;;;;;5029878;28;20444;-69
2021/04/23 03:38:08;;;;;;;8.53;3.37;;;3.70;85.50;;;;;;5030206;28;20967;-68
2021/04/23 03:40:38;;;;;;;9.07;4.23;;;3.70;85.70;;;;;;5029681;28;20533;-69
2021/04/23 03:43:05;;;;;;;8.57;3.10;;;3.70;86.00;;;;;;5029969;28;20449;-68
2021/04/23 03:45:32;;;;;;;6.70;3.30;;;3.70;86.10;;;;;;5029462;28;20990;-68
2021/04/23 03:47:59;;;;;;;6.13;3.33;;;3.70;86.40;;;;;;5029769;28;20445;-69
2021/04/23 03:50:27;;;;;;;8.23;3.70;;;3.60;86.40;;;;;;5029619;28;20846;-70
2021/04/23 03:52:56;;;;;;;12.80;3.40;;;3.60;86.80;;;;;;5029774;28;20502;-69
2021/04/23 03:55:25;;;;;;;5.13;2.93;;;3.60;86.80;;;;;;5029708;28;20426;-68
2021/04/23 03:57:53;;;;;;;7.77;3.73;;;3.60;87.20;;;;;;5029630;28;20428;-69
2021/04/23 04:00:26;;;;;;;17.93;3.37;;;3.60;87.40;;;;;;5029380;28;20448;-69
2021/04/23 04:02:53;;;;;;;7.77;3.60;;;3.50;87.10;;;;;;5029712;28;20457;-69
2021/04/23 04:05:20;;;;;;;8.10;3.73;;;3.50;87.10;;;;;;5029217;28;20519;-69
2021/04/23 04:07:47;;;;;;;10.23;4.00;;;3.50;87.30;;;;;;5029490;28;20436;-68
2021/04/23 04:10:14;;;;;;;13.80;3.43;;;3.50;87.60;;;;;;5029374;28;20432;-69
2021/04/23 04:12:41;;;;;;;5.40;3.27;;;3.50;88.10;;;;;;5029392;28;20444;-68
2021/04/23 04:15:10;;;;;;;7.37;4.00;;;3.50;88.10;;;;;;5029361;28;20436;-68
2021/04/23 04:17:37;;;;;;;12.20;3.43;;;3.40;88.20;;;;;;5029309;28;20448;-69
2021/04/23 04:20:06;;;;;;;10.63;3.57;;;3.40;88.30;;;;;;5028935;28;20478;-69
2021/04/23 04:22:33;;;;;;;8.87;3.60;;;3.50;88.40;;;;;;5029261;28;20468;-69
2021/04/23 04:25:00;;;;;;;4.80;3.20;;;3.50;88.80;;;;;;5029086;28;20549;-68
2021/04/23 04:27:27;;;;;;;6.10;3.40;;;3.50;89.20;;;;;;5029266;28;20428;-68
2021/04/23 04:29:54;;;;;;;6.03;2.90;;;3.50;89.00;;;;;;5028766;28;20437;-69
2021/04/23 04:32:22;;;;;;;8.23;4.23;;;3.40;89.00;;;;;;5028950;28;20448;-69
2021/04/23 04:34:49;;;;;;;4.90;2.63;;;3.40;89.10;;;;;;5028814;28;20942;-70
2021/04/23 04:37:16;;;;;;;8.97;3.40;;;3.40;89.00;;;;;;5029054;28;20825;-68
2021/04/23 04:39:43;;;;;;;6.33;3.30;;;3.40;89.40;;;;;;5029053;28;20785;-69
2021/04/23 04:42:09;;;;;;;7.30;3.60;;;3.30;89.50;;;;;;5028909;28;20441;-69
2021/04/23 04:44:36;;;;;;;10.57;3.63;;;3.40;89.50;;;;;;5028927;28;20480;-68
2021/04/23 04:47:04;;;;;;;11.53;4.37;;;3.40;89.90;;;;;;5028857;28;20867;-68
2021/04/23 04:49:31;;;;;;;6.87;3.70;;;3.40;89.70;;;;;;5028304;28;20941;-69
2021/04/23 04:51:58;;;;;;;8.23;3.47;;;3.40;89.90;;;;;;5028736;28;20466;-69
2021/04/23 04:54:25;;;;;;;8.13;3.70;;;3.40;90.00;;;;;;5028904;28;20462;-68
2021/04/23 04:56:52;;;;;;;14.73;5.87;;;3.50;90.10;;;;;;5028896;28;20451;-69
2021/04/23 04:59:19;;;;;;;17.43;9.83;;;3.50;90.10;;;;;;5028989;28;20426;-68
2021/04/23 05:01:45;;;;;;;13.77;8.47;;;3.50;90.20;;;;;;5028729;28;20439;-70
2021/04/23 05:04:12;;;;;;;13.87;8.03;;;3.50;90.30;;;;;;5028433;28;20832;-69
2021/04/23 05:06:39;;;;;;;14.80;7.93;;;3.60;90.40;;;;;;5028719;28;20439;-69
2021/04/23 05:09:07;;;;;;;18.77;9.10;;;3.60;90.50;;;;;;5028486;28;20429;-67
2021/04/23 05:11:34;;;;;;;42.03;22.00;;;3.70;90.60;;;;;;5028617;28;20436;-67
2021/04/23 05:14:01;;;;;;;62.07;32.40;;;3.70;90.60;;;;;;5038961;28;20502;-67
2021/04/23 05:16:27;;;;;;;27.30;15.70;;;3.80;90.60;;;;;;5048293;28;20432;-68
2021/04/23 05:18:54;;;;;;;13.27;6.00;;;3.90;90.80;;;;;;5033619;28;20429;-67
2021/04/23 05:21:21;;;;;;;6.97;4.23;;;3.90;90.50;;;;;;5028394;28;20526;-68
2021/04/23 05:23:48;;;;;;;8.27;3.93;;;4.00;90.50;;;;;;5028408;28;20452;-68
2021/04/23 05:26:15;;;;;;;16.00;4.17;;;4.10;90.40;;;;;;5028440;28;20739;-68
2021/04/23 05:28:42;;;;;;;7.40;4.00;;;4.20;90.20;;;;;;5028413;28;20459;-68
2021/04/23 05:31:08;;;;;;;26.00;5.77;;;4.30;90.00;;;;;;5028363;28;20445;-69
2021/04/23 05:33:35;;;;;;;10.77;4.40;;;4.40;89.50;;;;;;5028019;28;20481;-68
2021/04/23 05:36:02;;;;;;;12.60;7.87;;;4.50;90.20;;;;;;5028173;28;20937;-68
2021/04/23 05:38:28;;;;;;;13.17;6.37;;;4.60;89.20;;;;;;5028372;28;20451;-68
2021/04/23 05:40:56;;;;;;;8.33;4.30;;;4.60;89.20;;;;;;5027181;28;20426;-67
2021/04/23 05:43:22;;;;;;;10.30;4.47;;;4.60;88.80;;;;;;5028110;28;20518;-67
2021/04/23 05:45:50;;;;;;;16.60;4.57;;;4.70;89.30;;;;;;5028119;28;20469;-67
2021/04/23 05:48:18;;;;;;;9.37;4.17;;;4.80;88.80;;;;;;5027918;28;20431;-67
2021/04/23 05:50:46;;;;;;;8.50;4.73;;;4.80;88.00;;;;;;5027579;28;20441;-68
2021/04/23 05:53:13;;;;;;;8.47;4.27;;;4.90;87.70;;;;;;5030313;28;20501;-68
2021/04/23 05:55:39;;;;;;;7.47;5.20;;;4.90;87.50;;;;;;5028075;28;20445;-72
2021/04/23 05:58:09;;;;;;;8.70;4.50;;;5.00;87.90;;;;;;5044777;28;20450;-67
2021/04/23 06:00:37;;;;;;;8.43;4.23;;;5.10;88.60;;;;;;5046155;28;20550;-67
2021/04/23 06:03:05;;;;;;;7.30;4.63;;;5.20;87.90;;;;;;5046935;28;20789;-67
2021/04/23 06:05:32;;;;;;;9.40;4.83;;;5.30;87.30;;;;;;5047227;28;20471;-67
2021/04/23 06:08:01;;;;;;;11.43;5.00;;;5.40;86.90;;;;;;5047484;28;20448;-67
2021/04/23 06:10:28;;;;;;;9.27;5.13;;;5.40;87.40;;;;;;5047119;28;20477;-68
2021/04/23 06:12:56;;;;;;;15.27;4.63;;;5.40;88.30;;;;;;5047008;28;20849;-67
2021/04/23 06:15:25;;;;;;;8.23;4.40;;;5.50;88.10;;;;;;5036685;28;20445;-67
2021/04/23 06:17:54;;;;;;;6.50;3.63;;;5.60;88.60;;;;;;5027497;28;20431;-67
2021/04/23 06:20:23;;;;;;;8.97;4.73;;;5.70;88.30;;;;;;5027112;28;20928;-69
2021/04/23 06:22:50;;;;;;;7.57;4.03;;;5.80;87.90;;;;;;5040531;28;20448;-67
2021/04/23 06:25:18;;;;;;;10.93;4.30;;;5.80;88.20;;;;;;5047267;28;20464;-69
2021/04/23 06:27:46;;;;;;;6.40;3.80;;;5.80;87.20;;;;;;5047349;28;20483;-68
2021/04/23 06:30:15;;;;;;;6.63;3.67;;;5.90;86.90;;;;;;5046956;28;20438;-71
2021/04/23 06:32:44;;;;;;;10.67;4.93;;;6.00;86.20;;;;;;5047208;28;20464;-67
2021/04/23 06:35:12;;;;;;;7.27;4.13;;;6.10;87.40;;;;;;5047225;28;20521;-68
2021/04/23 06:37:39;;;;;;;11.10;4.70;;;6.10;86.70;;;;;;5047368;28;20436;-68
2021/04/23 06:40:07;;;;;;;6.13;3.77;;;6.20;87.20;;;;;;5047218;28;20445;-67
2021/04/23 06:42:34;;;;;;;9.27;4.20;;;6.20;86.80;;;;;;5047235;28;20429;-69
2021/04/23 06:45:02;;;;;;;6.30;3.70;;;6.30;86.50;;;;;;5047186;28;20474;-70
2021/04/23 06:47:31;;;;;;;13.97;4.37;;;6.40;85.00;;;;;;5047341;28;20801;-68
2021/04/23 06:49:59;;;;;;;12.50;4.03;;;6.50;84.60;;;;;;5046777;28;20434;-68
2021/04/23 06:52:26;;;;;;;10.10;4.00;;;6.50;84.80;;;;;;5049527;28;20428;-68
2021/04/23 06:54:53;;;;;;;9.37;4.10;;;6.60;85.90;;;;;;5050577;28;20442;-69
2021/04/23 06:57:19;;;;;;;5.73;3.77;;;6.70;86.10;;;;;;5050414;28;20446;-69
2021/04/23 06:59:46;;;;;;;47.70;20.70;;;6.80;84.60;;;;;;5050432;28;20448;-69
2021/04/23 07:02:13;;;;;;;23.37;11.00;;;6.90;85.60;;;;;;5050553;28;20513;-67
2021/04/23 07:04:39;;;;;;;28.70;13.53;;;7.00;84.30;;;;;;5050107;28;20864;-68
2021/04/23 07:07:07;;;;;;;12.47;6.93;;;7.00;85.10;;;;;;5037145;27;20440;-67
2021/04/23 07:09:34;;;;;;;10.40;5.37;;;7.10;84.60;;;;;;5030340;28;20443;-69
2021/04/23 07:12:01;;;;;;;8.80;4.50;;;7.20;85.40;;;;;;5030318;28;20439;-68
2021/04/23 07:14:28;;;;;;;11.73;5.53;;;7.30;85.30;;;;;;5030676;28;20933;-67
2021/04/23 07:16:55;;;;;;;8.70;5.10;;;7.30;86.90;;;;;;5030291;28;20439;-68
2021/04/23 07:19:22;;;;;;;15.33;5.40;;;7.50;87.20;;;;;;5030230;28;20448;-68
2021/04/23 07:21:48;;;;;;;8.57;4.60;;;7.60;85.90;;;;;;5029909;28;20451;-69
2021/04/23 07:24:16;;;;;;;8.40;4.50;;;7.70;86.70;;;;;;5030018;28;20486;-67
2021/04/23 07:26:43;;;;;;;7.57;4.30;;;7.90;86.10;;;;;;5030106;28;20431;-67
2021/04/23 07:29:09;;;;;;;9.90;4.20;;;8.00;85.10;;;;;;5031313;27;20463;-68
2021/04/23 07:31:36;;;;;;;10.80;3.97;;;8.00;84.10;;;;;;5030057;28;21025;-69
2021/04/23 07:34:03;;;;;;;12.03;6.33;;;8.10;83.70;;;;;;5029877;28;20531;-69
2021/04/23 07:36:30;;;;;;;32.03;23.43;;;8.10;85.40;;;;;;5029741;28;20432;-68
2021/04/23 07:38:56;;;;;;;17.03;11.10;;;8.20;86.60;;;;;;5029775;28;20428;-69
2021/04/23 07:41:24;;;;;;;10.90;5.27;;;8.50;86.60;;;;;;5029955;28;20440;-67
2021/04/23 07:43:51;;;;;;;7.87;4.23;;;8.60;86.40;;;;;;5029826;28;20455;-68
2021/04/23 07:46:18;;;;;;;6.17;4.43;;;8.80;86.80;;;;;;5029900;28;20482;-67
2021/04/23 07:48:44;;;;;;;9.00;4.83;;;8.90;86.70;;;;;;5029690;28;20451;-67
2021/04/23 07:51:11;;;;;;;18.67;5.37;;;9.10;85.50;;;;;;5029697;28;20424;-71
2021/04/23 07:53:37;;;;;;;9.53;4.67;;;9.10;85.60;;;;;;5029710;28;20491;-67
2021/04/23 07:56:04;;;;;;;7.27;4.60;;;9.20;86.60;;;;;;5029633;28;20435;-67
2021/04/23 07:58:32;;;;;;;7.13;4.40;;;9.30;84.20;;;;;;5029745;28;20452;-68
2021/04/23 08:00:59;;;;;;;6.63;4.20;;;9.40;84.70;;;;;;5029595;28;20450;-67
2021/04/23 08:03:29;;;;;;;9.23;5.00;;;9.40;83.10;;;;;;5029174;28;20483;-69
2021/04/23 08:05:56;;;;;;;9.70;4.10;;;9.50;85.10;;;;;;5029597;28;20489;-67
2021/04/23 08:08:23;;;;;;;9.43;4.77;;;9.70;83.90;;;;;;5029427;28;20501;-67
2021/04/23 08:10:49;;;;;;;11.00;4.30;;;9.80;82.50;;;;;;5029346;28;20424;-67
2021/04/23 08:13:16;;;;;;;7.20;3.07;;;10.00;79.40;;;;;;5029404;28;20497;-67
2021/04/23 08:15:44;;;;;;;9.27;4.13;;;10.10;79.90;;;;;;5029657;28;20467;-67
2021/04/23 08:18:10;;;;;;;12.43;4.47;;;10.20;79.50;;;;;;5029402;28;20822;-68
2021/04/23 08:20:37;;;;;;;6.77;3.30;;;10.30;79.50;;;;;;5029143;28;20490;-67
2021/04/23 08:23:04;;;;;;;6.40;3.17;;;10.30;72.90;;;;;;5029132;28;20456;-68
2021/04/23 08:25:31;;;;;;;8.63;4.40;;;10.30;72.10;;;;;;5029249;28;20467;-68
2021/04/23 08:27:57;;;;;;;7.10;3.90;;;10.50;70.80;;;;;;5029351;28;20489;-68
2021/04/23 08:30:26;;;;;;;7.63;3.10;;;10.60;73.70;;;;;;5029116;28;20432;-67
2021/04/23 08:32:54;;;;;;;8.57;3.90;;;10.70;73.50;;;;;;5028814;28;20983;-67
2021/04/23 08:35:21;;;;;;;12.10;3.13;;;10.90;74.50;;;;;;5029250;28;20443;-67
2021/04/23 08:37:48;;;;;;;6.00;3.03;;;10.90;71.20;;;;;;5028814;28;20436;-68
2021/04/23 08:40:17;;;;;;;8.50;3.60;;;10.90;70.50;;;;;;5028957;28;20473;-68
2021/04/23 08:42:44;;;;;;;7.70;4.30;;;11.10;71.30;;;;;;5028977;28;20454;-68
2021/04/23 08:45:13;;;;;;;6.53;3.20;;;11.10;71.00;;;;;;5028971;28;20467;-67
2021/04/23 08:47:42;;;;;;;5.63;3.30;;;11.20;71.30;;;;;;5028904;28;20439;-69
2021/04/23 08:50:11;;;;;;;6.27;3.30;;;11.30;69.70;;;;;;5028671;28;20435;-67
2021/04/23 08:52:41;;;;;;;6.20;2.90;;;11.30;69.70;;;;;;5027960;28;20435;-68
2021/04/23 08:55:09;;;;;;;8.70;3.87;;;11.40;70.90;;;;;;5028609;28;20432;-67
2021/04/23 08:57:36;;;;;;;11.63;4.37;;;11.50;71.50;;;;;;5028058;28;20808;-69
2021/04/23 09:00:04;;;;;;;4.67;2.77;;;11.50;70.00;;;;;;5028369;28;20793;-67
2021/04/23 09:02:31;;;;;;;6.60;3.50;;;11.60;71.40;;;;;;5027883;28;20440;-68
2021/04/23 09:04:57;;;;;;;7.00;3.57;;;11.70;70.10;;;;;;5028757;28;20825;-68
2021/04/23 09:07:25;;;;;;;10.63;3.80;;;11.80;69.80;;;;;;5028463;28;20467;-67
2021/04/23 09:09:52;;;;;;;9.30;3.77;;;11.90;68.90;;;;;;5028314;28;20424;-68
2021/04/23 09:12:21;;;;;;;6.80;3.60;;;12.00;70.70;;;;;;5028984;28;20436;-68
2021/04/23 09:14:48;;;;;;;8.87;4.50;;;12.00;68.60;;;;;;5027548;28;20654;-67
2021/04/23 09:17:20;;;;;;;11.13;3.17;;;12.10;68.50;;;;;;5028748;28;20862;-68
2021/04/23 09:19:47;;;;;;;15.57;5.17;;;12.10;66.90;;;;;;5028039;28;20436;-68
2021/04/23 09:22:27;;;;;;;9.10;3.17;;;12.30;68.00;;;;;;5028249;28;20815;-68
2021/04/23 09:25:00;;;;;;;10.73;3.70;;;12.30;67.50;;;;;;5028139;28;20839;-68
2021/04/23 09:27:29;;;;;;;7.57;3.43;;;12.40;67.60;;;;;;5028622;28;20482;-69
2021/04/23 09:29:58;;;;;;;8.27;4.17;;;12.60;69.00;;;;;;5028015;28;20432;-68
2021/04/23 09:32:26;;;;;;;8.50;3.83;;;12.60;65.60;;;;;;5028184;28;20454;-67
2021/04/23 09:34:56;;;;;;;10.73;4.10;;;12.70;68.60;;;;;;5028129;28;20428;-67
2021/04/23 09:37:25;;;;;;;6.43;3.80;;;12.70;69.30;;;;;;5027921;28;20949;-67
2021/04/23 09:39:53;;;;;;;5.53;3.17;;;12.70;67.80;;;;;;5027871;28;20445;-67
2021/04/23 09:42:20;;;;;;;8.67;3.53;;;12.80;69.40;;;;;;5028365;28;20440;-67
2021/04/23 09:44:49;;;;;;;6.40;3.47;;;12.90;68.40;;;;;;5028006;28;21063;-67
2021/04/23 09:47:18;;;;;;;11.60;3.87;;;13.10;68.20;;;;;;5027798;28;20451;-68
2021/04/23 09:49:46;;;;;;;4.50;2.83;;;13.20;67.10;;;;;;5030796;28;20446;-67
2021/04/23 09:52:15;;;;;;;5.93;2.73;;;13.20;65.10;;;;;;5047637;28;20427;-68
2021/04/23 09:54:47;;;;;;;6.63;3.40;;;13.20;65.40;;;;;;5047558;28;20447;-67
2021/04/23 09:57:17;;;;;;;8.00;3.00;;;13.30;63.30;;;;;;5047950;28;20435;-67
2021/04/23 09:59:50;;;;;;;8.23;3.97;;;13.40;64.80;;;;;;5047564;28;20923;-68
2021/04/23 10:02:18;;;;;;;10.50;3.37;;;13.40;64.40;;;;;;5048045;28;20428;-68
2021/04/23 10:04:45;;;;;;;9.40;2.87;;;13.50;66.60;;;;;;5047494;28;20803;-67
2021/04/23 10:07:17;;;;;;;5.30;2.97;;;13.60;62.50;;;;;;5047512;28;20434;-67
2021/04/23 10:09:55;;;;;;;6.80;2.87;;;13.70;64.20;;;;;;5047428;28;20482;-68
2021/04/23 10:12:40;;;;;;;12.00;3.27;;;13.80;64.60;;;;;;5047690;28;20440;-67
2021/04/23 10:15:12;;;;;;;9.30;4.63;;;13.90;64.70;;;;;;5047504;28;20464;-68
2021/04/23 10:17:43;;;;;;;5.63;2.30;;;14.00;63.20;;;;;;5048110;28;20428;-67
2021/04/23 10:20:12;;;;;;;4.10;2.30;;;14.10;62.00;;;;;;5047306;28;20426;-66
2021/04/23 10:22:39;;;;;;;5.70;3.03;;;14.10;59.40;;;;;;5047498;28;20434;-68
2021/04/23 10:25:07;;;;;;;5.60;3.23;;;14.20;60.10;;;;;;5032797;27;20844;-67
2021/04/23 10:27:35;;;;;;;9.97;3.13;;;14.30;59.70;;;;;;5030478;28;20955;-68
2021/04/23 10:30:07;;;;;;;7.90;3.47;;;14.40;61.20;;;;;;5030777;28;20438;-67
2021/04/23 10:32:34;;;;;;;10.63;3.57;;;14.40;61.20;;;;;;5030845;28;20453;-67
2021/04/23 10:35:01;;;;;;;9.80;3.00;;;14.50;60.30;;;;;;5031026;28;20437;-67
2021/04/23 10:37:28;;;;;;;10.03;3.10;;;14.60;59.50;;;;;;5030618;28;20442;-67
2021/04/23 10:39:55;;;;;;;5.90;3.00;;;14.50;57.40;;;;;;5030637;28;20434;-68
2021/04/23 10:42:46;;;;;;;6.37;3.30;;;14.50;58.50;;;;;;5030811;28;20434;-67
2021/04/23 10:45:38;;;;;;;5.63;2.60;;;14.60;59.80;;;;;;5030733;28;20470;-67
2021/04/23 10:48:30;;;;;;;7.53;2.93;;;15.00;60.20;;;;;;5031072;28;20478;-67
2021/04/23 10:50:59;;;;;;;4.93;2.50;;;15.10;59.30;;;;;;5030538;28;20435;-67
2021/04/23 10:53:41;;;;;;;6.80;2.60;;;15.20;58.60;;;;;;5030221;28;20476;-67
2021/04/23 10:56:19;;;;;;;7.50;2.47;;;15.30;57.40;;;;;;5030883;28;20798;-67
2021/04/23 10:58:47;;;;;;;4.60;2.50;;;15.40;57.10;;;;;;5030661;28;20429;-68
2021/04/23 11:01:29;;;;;;;6.43;3.00;;;15.40;58.90;;;;;;5030646;28;20427;-67
2021/04/23 11:04:10;;;;;;;5.40;3.10;;;15.40;55.40;;;;;;5030535;28;20472;-67
2021/04/23 11:06:39;;;;;;;6.43;2.70;;;15.50;56.60;;;;;;5030420;28;20485;-67
2021/04/23 11:09:21;;;;;;;7.23;2.57;;;15.60;55.00;;;;;;5029918;28;20518;-68
2021/04/23 11:12:17;;;;;;;5.77;3.27;;;15.60;55.50;;;;;;5029863;27;20465;-67
2021/04/23 11:14:45;;;;;;;5.83;2.73;;;15.60;54.50;;;;;;5030480;28;20486;-68
2021/04/23 11:17:33;;;;;;;4.30;2.80;;;15.90;57.50;;;;;;5030501;28;20423;-68
2021/04/23 11:20:01;;;;;;;11.13;2.80;;;16.00;55.40;;;;;;5025760;27;20447;-67
2021/04/23 11:22:30;;;;;;;8.17;3.93;;;16.20;55.90;;;;;;5049862;28;20927;-67
2021/04/23 11:25:13;;;;;;;10.63;3.97;;;16.20;55.60;;;;;;5050215;28;20550;-68
2021/04/23 11:28:08;;;;;;;5.20;3.30;;;16.30;54.60;;;;;;5049355;28;20471;-68
2021/04/23 11:31:09;;;;;;;8.40;2.70;;;16.20;55.10;;;;;;5049685;28;20462;-68
2021/04/23 11:33:48;;;;;;;7.90;2.53;;;16.20;54.70;;;;;;5043578;27;20475;-67
2021/04/23 11:36:25;;;;;;;3.73;2.40;;;16.30;53.80;;;;;;5049861;28;20517;-67
2021/04/23 11:38:57;;;;;;;7.13;2.93;;;16.50;51.30;;;;;;5048424;28;20471;-67
2021/04/23 11:41:24;;;;;;;12.20;3.50;;;16.50;56.90;;;;;;5046958;28;20530;-68
2021/04/23 11:43:51;;;;;;;5.17;2.90;;;16.60;55.00;;;;;;5029767;28;20463;-68
2021/04/23 11:46:18;;;;;;;7.13;2.67;;;16.70;55.30;;;;;;5029974;28;20475;-68
2021/04/23 11:48:50;;;;;;;3.03;2.60;;;16.70;53.30;;;;;;5029617;28;20480;-68
2021/04/23 11:51:17;;;;;;;4.33;2.57;;;16.80;55.40;;;;;;5029787;28;20424;-67
2021/04/23 11:53:48;;;;;;;9.53;3.17;;;16.90;53.20;;;;;;5029782;28;20459;-67
2021/04/23 11:56:16;;;;;;;4.13;2.60;;;16.90;54.50;;;;;;5029866;28;20444;-68
2021/04/23 11:58:45;;;;;;;4.90;2.60;;;17.10;55.40;;;;;;5029557;28;20477;-68
2021/04/23 12:01:11;;;;;;;3.93;2.70;;;17.20;53.50;;;;;;5029641;28;20439;-68
2021/04/23 12:03:44;;;;;;;5.23;3.13;;;17.40;52.50;;;;;;5029685;28;20956;-67
2021/04/23 12:06:11;;;;;;;3.13;2.00;;;17.50;54.70;;;;;;5029583;28;20475;-68
2021/04/23 12:08:38;;;;;;;6.60;3.27;;;17.80;55.30;;;;;;5029283;28;20424;-68
2021/04/23 12:11:06;;;;;;;3.23;2.40;;;17.80;53.40;;;;;;5029409;28;20544;-67
2021/04/23 12:13:35;;;;;;;5.87;3.00;;;17.90;54.70;;;;;;5029405;28;20448;-68
2021/04/23 12:16:06;;;;;;;3.33;2.73;;;18.00;53.60;;;;;;5029469;28;20765;-67
2021/04/23 12:18:33;;;;;;;4.07;3.20;;;18.10;53.10;;;;;;5029355;28;20435;-67
2021/04/23 12:21:01;;;;;;;7.83;3.40;;;18.00;52.30;;;;;;5029354;28;20430;-67
2021/04/23 12:23:29;;;;;;;5.87;3.90;;;18.00;51.30;;;;;;5029177;28;20440;-68
2021/04/23 12:25:58;;;;;;;7.97;2.90;;;18.10;52.40;;;;;;5029270;28;20621;-67
2021/04/23 12:28:28;;;;;;;4.73;2.80;;;18.20;54.10;;;;;;5030384;27;20519;-67
2021/04/23 12:30:56;;;;;;;5.50;3.70;;;18.40;53.30;;;;;;5029029;28;20436;-67
2021/04/23 12:33:24;;;;;;;17.70;4.17;;;18.50;54.40;;;;;;5028966;28;20460;-67
2021/04/23 12:35:52;;;;;;;3.23;2.50;;;18.60;53.60;;;;;;5029333;28;20959;-67
2021/04/23 12:38:38;;;;;;;5.50;3.10;;;18.80;54.40;;;;;;5028869;28;20500;-67
2021/04/23 12:41:17;;;;;;;5.20;3.23;;;18.90;53.10;;;;;;5028947;28;20439;-69
2021/04/23 12:43:44;;;;;;;10.43;4.00;;;18.80;53.60;;;;;;5029036;28;20777;-68
2021/04/23 12:46:21;;;;;;;5.27;3.00;;;18.80;53.70;;;;;;5028908;28;20475;-68
2021/04/23 12:48:58;;;;;;;6.73;3.20;;;19.00;54.60;;;;;;5028514;28;20447;-68
2021/04/23 12:51:25;;;;;;;12.97;3.97;;;19.20;54.30;;;;;;5028845;28;20465;-67
2021/04/23 12:53:54;;;;;;;9.07;3.60;;;19.50;54.00;;;;;;5028413;28;20955;-67
2021/04/23 12:56:23;;;;;;;7.93;3.80;;;19.70;53.20;;;;;;5029115;28;20428;-66
2021/04/23 12:58:50;;;;;;;5.93;3.67;;;19.80;52.30;;;;;;5028700;28;20473;-67